createdAt,value
2018-04-20T00:00:54.109Z,15.40
2018-04-20T00:03:22.442Z,15.10
2018-04-20T00:05:50.106Z,15.10
2018-04-20T00:08:17.691Z,15.00
2018-04-20T00:10:46.041Z,14.90
2018-04-20T00:13:13.665Z,14.90
2018-04-20T00:15:41.358Z,14.90
2018-04-20T00:18:08.933Z,14.90
2018-04-20T00:20:36.493Z,14.80
2018-04-20T00:23:04.090Z,14.90
2018-04-20T00:25:31.650Z,15.00
2018-04-20T00:27:59.240Z,15.20
2018-04-20T00:30:26.809Z,15.30
2018-04-20T00:32:54.585Z,15.30
2018-04-20T00:35:22.156Z,14.90
2018-04-20T00:37:49.765Z,14.60
2018-04-20T00:40:17.486Z,14.50
2018-04-20T00:42:45.969Z,14.40
2018-04-20T00:45:14.349Z,14.40
2018-04-20T00:47:42.692Z,14.40
2018-04-20T00:50:10.285Z,14.40
2018-04-20T00:52:38.639Z,14.70
2018-04-20T00:55:06.256Z,14.70
2018-04-20T00:57:33.829Z,14.90
2018-04-20T01:00:01.507Z,14.60
2018-04-20T01:02:29.856Z,14.20
2018-04-20T01:04:57.618Z,14.20
2018-04-20T01:07:25.176Z,14.20
2018-04-20T01:09:52.813Z,14.20
2018-04-20T01:12:20.391Z,14.00
2018-04-20T01:14:47.973Z,14.10
2018-04-20T01:17:15.564Z,14.20
2018-04-20T01:19:43.902Z,14.40
2018-04-20T01:22:11.486Z,14.40
2018-04-20T01:24:40.017Z,14.50
2018-04-20T01:27:07.617Z,14.50
2018-04-20T01:29:35.173Z,14.20
2018-04-20T01:32:03.521Z,13.80
2018-04-20T01:34:31.091Z,13.80
2018-04-20T01:36:58.941Z,13.80
2018-04-20T01:39:26.507Z,13.70
2018-04-20T01:41:54.179Z,13.70
2018-04-20T01:44:21.817Z,13.60
2018-04-20T01:46:49.382Z,13.50
2018-04-20T01:49:16.969Z,13.50
2018-04-20T01:51:44.544Z,13.50
2018-04-20T01:54:12.910Z,13.40
2018-04-20T01:56:40.512Z,13.40
2018-04-20T01:59:08.090Z,13.60
2018-04-20T02:01:35.713Z,13.70
2018-04-20T02:04:04.087Z,13.80
2018-04-20T02:06:32.505Z,13.60
2018-04-20T02:09:00.083Z,13.60
2018-04-20T02:11:27.649Z,13.60
2018-04-20T02:13:55.240Z,13.30
2018-04-20T02:16:23.573Z,13.20
2018-04-20T02:18:51.141Z,13.20
2018-04-20T02:21:18.828Z,13.20
2018-04-20T02:23:46.386Z,13.30
2018-04-20T02:26:13.973Z,13.10
2018-04-20T02:28:41.531Z,13.00
2018-04-20T02:31:09.261Z,13.00
2018-04-20T02:33:36.904Z,12.90
2018-04-20T02:36:06.013Z,13.00
2018-04-20T02:38:33.652Z,13.00
2018-04-20T02:41:01.221Z,13.00
2018-04-20T02:43:28.834Z,12.80
2018-04-20T02:45:56.406Z,12.80
2018-04-20T02:48:23.997Z,12.90
2018-04-20T02:50:51.556Z,12.70
2018-04-20T02:53:19.153Z,12.70
2018-04-20T02:55:47.480Z,12.70
2018-04-20T02:58:15.070Z,12.70
2018-04-20T03:00:43.398Z,12.80
2018-04-20T03:03:10.996Z,12.80
2018-04-20T03:05:38.601Z,12.80
2018-04-20T03:08:06.229Z,12.60
2018-04-20T03:10:34.624Z,12.50
2018-04-20T03:13:02.257Z,12.50
2018-04-20T03:15:29.817Z,12.40
2018-04-20T03:17:57.433Z,12.40
2018-04-20T03:20:25.016Z,12.50
2018-04-20T03:22:52.605Z,12.40
2018-04-20T03:25:20.276Z,12.40
2018-04-20T03:27:47.839Z,12.40
2018-04-20T03:30:15.473Z,12.30
2018-04-20T03:32:43.288Z,12.30
2018-04-20T03:35:10.881Z,12.20
2018-04-20T03:37:39.202Z,12.10
2018-04-20T03:40:06.793Z,12.10
2018-04-20T03:42:34.483Z,12.10
2018-04-20T03:45:02.201Z,12.10
2018-04-20T03:47:29.917Z,12.10
2018-04-20T03:49:57.571Z,12.20
2018-04-20T03:52:25.134Z,12.10
2018-04-20T03:54:52.754Z,12.30
2018-04-20T03:57:20.321Z,12.50
2018-04-20T03:59:47.896Z,12.50
2018-04-20T04:02:15.460Z,12.40
2018-04-20T04:04:43.918Z,12.40
2018-04-20T04:07:11.518Z,12.40
2018-04-20T04:09:39.881Z,12.10
2018-04-20T04:12:07.484Z,12.10
2018-04-20T04:14:35.176Z,11.90
2018-04-20T04:17:14.782Z,11.90
2018-04-20T04:23:01.012Z,11.80
2018-04-20T04:25:40.453Z,15.20
2018-04-20T04:28:28.510Z,11.60
2018-04-20T04:30:56.080Z,11.60
2018-04-20T04:33:23.704Z,11.60
2018-04-20T04:35:51.277Z,11.50
2018-04-20T04:38:18.869Z,11.50
2018-04-20T04:40:46.565Z,11.50
2018-04-20T04:43:14.228Z,11.50
2018-04-20T04:45:41.789Z,11.50
2018-04-20T04:48:09.433Z,11.50
2018-04-20T04:50:37.831Z,11.50
2018-04-20T04:53:05.457Z,11.50
2018-04-20T04:55:33.941Z,11.50
2018-04-20T04:58:02.324Z,11.50
2018-04-20T05:00:30.733Z,11.50
2018-04-20T05:02:58.321Z,11.50
2018-04-20T05:05:26.053Z,11.50
2018-04-20T05:07:53.609Z,11.50
2018-04-20T05:10:21.350Z,11.60
2018-04-20T05:12:49.114Z,11.60
2018-04-20T05:15:16.753Z,11.70
2018-04-20T05:17:45.084Z,11.60
2018-04-20T05:20:12.739Z,11.60
2018-04-20T05:22:40.329Z,11.70
2018-04-20T05:25:07.917Z,11.80
2018-04-20T05:27:36.249Z,11.90
2018-04-20T05:30:03.952Z,11.90
2018-04-20T05:32:32.285Z,12.00
2018-04-20T05:34:59.934Z,12.00
2018-04-20T05:37:27.510Z,12.00
2018-04-20T05:39:55.209Z,12.10
2018-04-20T05:42:23.549Z,12.20
2018-04-20T05:44:51.081Z,12.20
2018-04-20T05:47:18.682Z,12.30
2018-04-20T05:49:46.242Z,12.60
2018-04-20T05:52:13.907Z,12.60
2018-04-20T05:54:41.542Z,12.60
2018-04-20T05:57:09.133Z,12.60
2018-04-20T05:59:37.473Z,12.60
2018-04-20T06:02:06.797Z,12.60
2018-04-20T06:04:34.365Z,12.60
2018-04-20T06:07:02.735Z,12.80
2018-04-20T06:09:30.465Z,12.70
2018-04-20T06:11:58.045Z,12.80
2018-04-20T06:14:25.609Z,12.90
2018-04-20T06:16:53.201Z,13.00
2018-04-20T06:19:20.791Z,13.00
2018-04-20T06:21:48.365Z,13.20
2018-04-20T06:24:16.089Z,13.30
2018-04-20T06:26:43.657Z,13.70
2018-04-20T06:29:11.294Z,13.70
2018-04-20T06:31:39.644Z,14.00
2018-04-20T06:34:07.317Z,13.90
2018-04-20T06:36:35.797Z,14.20
2018-04-20T06:39:04.123Z,14.50
2018-04-20T06:41:31.879Z,14.40
2018-04-20T06:43:59.450Z,14.90
2018-04-20T06:46:27.149Z,15.60
2018-04-20T06:48:54.757Z,15.60
2018-04-20T06:51:22.423Z,15.70
2018-04-20T06:53:49.981Z,15.40
2018-04-20T06:56:17.584Z,15.50
2018-04-20T06:58:45.143Z,15.80
2018-04-20T07:01:12.729Z,16.00
2018-04-20T07:03:40.297Z,16.40
2018-04-20T07:06:08.097Z,16.80
2018-04-20T07:08:35.667Z,16.70
2018-04-20T07:11:03.292Z,16.60
2018-04-20T07:13:30.870Z,16.80
2018-04-20T07:15:58.470Z,17.40
2018-04-20T07:18:26.842Z,18.30
2018-04-20T07:20:54.607Z,18.30
2018-04-20T07:23:22.245Z,18.60
2018-04-20T07:25:49.849Z,18.90
2018-04-20T07:28:17.444Z,18.80
2018-04-20T07:30:45.093Z,19.50
2018-04-20T07:33:12.839Z,20.00
2018-04-20T07:35:40.503Z,20.80
2018-04-20T07:38:08.873Z,20.80
2018-04-20T07:40:36.606Z,20.80
2018-04-20T07:43:04.197Z,20.60
2018-04-20T07:45:31.845Z,21.80
2018-04-20T07:48:00.226Z,21.50
2018-04-20T07:50:28.760Z,22.30
2018-04-20T07:52:56.365Z,22.30
2018-04-20T07:55:24.788Z,23.00
2018-04-20T07:57:52.378Z,23.00
2018-04-20T08:00:19.996Z,23.20
2018-04-20T08:02:47.692Z,24.10
2018-04-20T08:05:15.282Z,24.90
2018-04-20T08:07:43.651Z,23.50
2018-04-20T08:10:12.001Z,23.50
2018-04-20T08:12:39.618Z,23.50
2018-04-20T08:15:07.208Z,22.90
2018-04-20T08:17:34.788Z,22.50
2018-04-20T08:20:02.391Z,23.30
2018-04-20T08:22:29.995Z,23.40
2018-04-20T08:24:57.572Z,23.20
2018-04-20T08:27:25.949Z,25.10
2018-04-20T08:29:54.285Z,24.70
2018-04-20T08:32:21.881Z,24.60
2018-04-20T08:34:49.468Z,23.50
2018-04-20T08:37:17.081Z,23.60
2018-04-20T08:39:44.713Z,23.70
2018-04-20T08:42:12.463Z,24.50
2018-04-20T08:44:40.049Z,25.00
2018-04-20T08:47:07.714Z,24.70
2018-04-20T08:49:35.319Z,25.50
2018-04-20T08:52:03.853Z,24.60
2018-04-20T08:54:31.546Z,24.60
2018-04-20T08:56:59.972Z,25.80
2018-04-20T08:59:27.589Z,25.70
2018-04-20T09:01:55.956Z,26.20
2018-04-20T09:04:23.607Z,26.10
2018-04-20T09:06:51.165Z,25.20
2018-04-20T09:09:18.774Z,25.10
2018-04-20T09:11:46.346Z,25.20
2018-04-20T09:14:14.110Z,26.60
2018-04-20T09:16:41.666Z,25.70
2018-04-20T09:19:09.241Z,25.90
2018-04-20T09:21:36.812Z,25.70
2018-04-20T09:24:04.685Z,26.70
2018-04-20T09:26:32.248Z,26.10
2018-04-20T09:28:59.837Z,26.20
2018-04-20T09:31:27.430Z,26.00
2018-04-20T09:33:55.003Z,27.80
2018-04-20T09:36:22.694Z,28.30
2018-04-20T09:38:51.089Z,26.90
2018-04-20T09:41:19.428Z,27.00
2018-04-20T09:43:47.015Z,27.00
2018-04-20T09:46:15.361Z,27.50
2018-04-20T09:48:43.757Z,28.40
2018-04-20T09:51:11.366Z,28.40
2018-04-20T09:53:38.954Z,27.80
2018-04-20T09:56:06.595Z,28.20
2018-04-20T09:58:34.214Z,29.20
2018-04-20T10:01:10.401Z,30.00
2018-04-20T10:03:43.907Z,29.70
2018-04-20T10:06:11.654Z,29.70
2018-04-20T10:08:39.217Z,29.40
2018-04-20T10:11:06.773Z,27.60
2018-04-20T10:13:34.365Z,27.00
2018-04-20T10:16:02.073Z,27.40
2018-04-20T10:18:30.437Z,27.20
2018-04-20T10:20:58.801Z,27.50
2018-04-20T10:23:27.907Z,29.90
2018-04-20T10:25:56.256Z,28.60
2018-04-20T10:28:23.846Z,28.60
2018-04-20T10:30:52.243Z,27.70
2018-04-20T10:33:19.839Z,27.70
2018-04-20T10:35:47.421Z,29.10
2018-04-20T10:38:15.042Z,28.10
2018-04-20T10:40:42.748Z,28.50
2018-04-20T10:43:10.356Z,28.10
2018-04-20T10:45:37.916Z,27.80
2018-04-20T10:48:05.509Z,28.80
2018-04-20T10:50:33.077Z,28.50
2018-04-20T10:53:02.282Z,27.30
2018-04-20T10:55:30.098Z,27.30
2018-04-20T10:57:57.665Z,26.90
2018-04-20T11:00:25.274Z,27.70
2018-04-20T11:02:53.672Z,30.00
2018-04-20T11:05:21.301Z,30.00
2018-04-20T11:07:48.896Z,31.30
2018-04-20T11:10:16.634Z,30.60
2018-04-20T11:12:44.960Z,31.40
2018-04-20T11:15:12.561Z,31.40
2018-04-20T11:17:40.884Z,28.60
2018-04-20T11:20:08.498Z,28.60
2018-04-20T11:22:36.860Z,27.90
2018-04-20T11:25:05.254Z,29.20
2018-04-20T11:27:33.596Z,29.50
2018-04-20T11:30:01.376Z,29.50
2018-04-20T11:32:28.997Z,28.20
2018-04-20T11:34:56.597Z,27.70
2018-04-20T11:37:24.182Z,27.80
2018-04-20T11:39:52.539Z,27.10
2018-04-20T11:42:20.901Z,27.40
2018-04-20T11:44:48.574Z,27.40
2018-04-20T11:47:17.035Z,27.30
2018-04-20T11:49:44.657Z,27.20
2018-04-20T11:52:12.271Z,27.40
2018-04-20T11:54:39.879Z,27.80
2018-04-20T11:57:07.473Z,27.40
2018-04-20T11:59:35.109Z,27.00
2018-04-20T12:02:02.699Z,27.80
2018-04-20T12:04:30.258Z,27.30
2018-04-20T12:06:57.837Z,27.40
2018-04-20T12:09:26.260Z,26.90
2018-04-20T12:11:53.865Z,26.90
2018-04-20T12:14:22.193Z,27.40
2018-04-20T12:16:49.777Z,27.30
2018-04-20T12:19:17.345Z,26.90
2018-04-20T12:21:45.021Z,26.50
2018-04-20T12:24:12.831Z,26.50
2018-04-20T12:26:40.438Z,26.60
2018-04-20T12:29:08.178Z,27.00
2018-04-20T12:31:35.793Z,26.80
2018-04-20T12:34:03.343Z,26.50
2018-04-20T12:36:31.711Z,26.30
2018-04-20T12:39:00.059Z,26.00
2018-04-20T12:41:27.791Z,26.00
2018-04-20T12:43:55.538Z,26.90
2018-04-20T12:46:23.091Z,27.30
2018-04-20T12:48:50.802Z,27.10
2018-04-20T12:51:18.516Z,26.60
2018-04-20T12:53:46.856Z,26.70
2018-04-20T12:56:14.459Z,26.60
2018-04-20T12:58:42.101Z,26.80
2018-04-20T13:01:10.512Z,27.80
2018-04-20T13:03:38.078Z,27.80
2018-04-20T13:06:05.662Z,28.20
2018-04-20T13:08:33.251Z,28.80
2018-04-20T13:11:01.597Z,27.50
2018-04-20T13:13:29.161Z,27.40
2018-04-20T13:15:56.807Z,27.00
2018-04-20T13:18:24.336Z,27.10
2018-04-20T13:20:51.901Z,26.90
2018-04-20T13:23:19.469Z,26.20
2018-04-20T13:25:47.115Z,26.30
2018-04-20T13:28:14.822Z,26.90
2018-04-20T13:30:42.546Z,26.90
2018-04-20T13:33:10.100Z,27.10
2018-04-20T13:35:37.717Z,28.10
2018-04-20T13:38:06.136Z,27.80
2018-04-20T13:40:33.856Z,27.80
2018-04-20T13:43:02.309Z,27.60
2018-04-20T13:45:30.026Z,27.60
2018-04-20T13:47:57.601Z,27.60
2018-04-20T13:50:25.201Z,27.10
2018-04-20T13:52:52.759Z,27.10
2018-04-20T13:55:20.377Z,27.70
2018-04-20T13:57:48.117Z,27.80
2018-04-20T14:00:15.729Z,27.10
2018-04-20T14:02:43.325Z,27.10
2018-04-20T14:05:11.654Z,26.90
2018-04-20T14:07:39.246Z,26.90
2018-04-20T14:10:07.737Z,27.00
2018-04-20T14:12:36.089Z,26.50
2018-04-20T14:15:03.670Z,26.40
2018-04-20T14:17:32.032Z,27.00
2018-04-20T14:20:00.393Z,26.80
2018-04-20T14:22:27.967Z,26.70
2018-04-20T14:24:55.643Z,27.00
2018-04-20T14:27:23.982Z,26.80
2018-04-20T14:29:51.580Z,26.80
2018-04-20T14:32:19.910Z,26.90
2018-04-20T14:34:47.501Z,26.90
2018-04-20T14:37:15.980Z,27.20
2018-04-20T14:39:44.426Z,27.10
2018-04-20T14:42:12.145Z,27.10
2018-04-20T14:44:39.769Z,27.30
2018-04-20T14:47:07.371Z,27.00
2018-04-20T14:49:34.973Z,27.50
2018-04-20T14:52:02.574Z,27.40
2018-04-20T14:54:30.957Z,28.10
2018-04-20T14:56:58.701Z,28.10
2018-04-20T14:59:27.039Z,27.20
2018-04-20T15:01:54.626Z,27.20
2018-04-20T15:04:22.221Z,27.30
2018-04-20T15:06:49.840Z,26.90
2018-04-20T15:09:17.407Z,26.80
2018-04-20T15:11:45.750Z,26.90
2018-04-20T15:14:13.369Z,26.80
2018-04-20T15:16:40.969Z,27.00
2018-04-20T15:19:08.551Z,28.00
2018-04-20T15:21:37.048Z,27.00
2018-04-20T15:24:05.572Z,26.80
2018-04-20T15:26:33.129Z,26.80
2018-04-20T15:29:00.701Z,26.90
2018-04-20T15:31:28.407Z,27.20
2018-04-20T15:33:56.855Z,26.50
2018-04-20T15:36:24.453Z,26.50
2018-04-20T15:38:52.772Z,26.70
2018-04-20T15:41:20.565Z,26.60
2018-04-20T15:43:48.147Z,26.90
2018-04-20T15:46:16.524Z,26.80
2018-04-20T15:48:44.080Z,26.80
2018-04-20T15:51:12.460Z,26.90
2018-04-20T15:53:40.788Z,27.20
2018-04-20T15:56:08.382Z,27.20
2018-04-20T15:58:36.047Z,26.90
2018-04-20T16:01:04.410Z,26.90
2018-04-20T16:03:31.979Z,26.80
2018-04-20T16:05:59.646Z,27.40
2018-04-20T16:08:27.985Z,26.70
2018-04-20T16:10:55.610Z,26.70
2018-04-20T16:13:23.223Z,26.70
2018-04-20T16:15:50.824Z,26.60
2018-04-20T16:18:18.441Z,26.60
2018-04-20T16:20:46.005Z,26.70
2018-04-20T16:23:13.630Z,26.60
2018-04-20T16:25:41.193Z,26.60
2018-04-20T16:28:08.810Z,26.40
2018-04-20T16:30:36.468Z,26.60
2018-04-20T16:33:04.834Z,26.50
2018-04-20T16:35:33.166Z,26.50
2018-04-20T16:38:00.871Z,26.40
2018-04-20T16:40:29.198Z,26.50
2018-04-20T16:42:56.962Z,26.40
2018-04-20T16:45:24.537Z,26.50
2018-04-20T16:47:52.130Z,26.50
2018-04-20T16:50:20.504Z,26.60
2018-04-20T16:52:48.970Z,26.30
2018-04-20T16:55:16.569Z,26.30
2018-04-20T16:57:44.147Z,26.20
2018-04-20T17:00:11.772Z,26.40
2018-04-20T17:02:40.230Z,26.30
2018-04-20T17:05:07.957Z,26.20
2018-04-20T17:07:35.550Z,26.20
2018-04-20T17:10:03.125Z,26.00
2018-04-20T17:12:31.556Z,26.00
2018-04-20T17:14:59.124Z,26.00
2018-04-20T17:17:31.623Z,25.80
2018-04-20T17:19:59.972Z,25.80
2018-04-20T17:22:27.584Z,25.80
2018-04-20T17:24:55.342Z,25.80
2018-04-20T17:27:23.730Z,25.60
2018-04-20T17:29:51.291Z,25.50
2018-04-20T17:32:18.921Z,25.60
2018-04-20T17:34:47.288Z,25.40
2018-04-20T17:37:15.036Z,25.40
2018-04-20T17:39:43.385Z,25.30
2018-04-20T17:42:10.994Z,25.30
2018-04-20T17:44:39.402Z,25.20
2018-04-20T17:47:07.113Z,25.20
2018-04-20T17:49:34.704Z,25.10
2018-04-20T17:52:03.063Z,25.00
2018-04-20T17:54:30.621Z,25.00
2018-04-20T17:56:58.214Z,24.90
2018-04-20T17:59:25.847Z,24.90
2018-04-20T18:01:54.222Z,24.80
2018-04-20T18:04:22.665Z,24.70
2018-04-20T18:06:50.225Z,24.70
2018-04-20T18:09:17.846Z,24.60
2018-04-20T18:11:45.466Z,24.70
2018-04-20T18:14:13.056Z,24.50
2018-04-20T18:16:41.403Z,24.30
2018-04-20T18:19:09.769Z,24.20
2018-04-20T18:21:37.516Z,24.10
2018-04-20T18:24:05.126Z,24.10
2018-04-20T18:26:32.717Z,24.00
2018-04-20T18:29:00.321Z,23.70
2018-04-20T18:31:27.940Z,23.60
2018-04-20T18:33:55.586Z,23.60
2018-04-20T18:36:23.163Z,23.60
2018-04-20T18:38:50.881Z,23.90
2018-04-20T18:41:19.206Z,23.90
2018-04-20T18:43:46.773Z,23.90
2018-04-20T18:46:14.359Z,23.90
2018-04-20T18:48:41.961Z,23.80
2018-04-20T18:51:09.561Z,23.70
2018-04-20T18:53:37.254Z,23.40
2018-04-20T18:56:05.620Z,23.20
2018-04-20T18:58:34.053Z,23.30
2018-04-20T19:01:01.902Z,23.30
2018-04-20T19:03:29.571Z,23.40
2018-04-20T19:05:57.174Z,23.30
2018-04-20T19:08:24.765Z,23.20
2018-04-20T19:10:52.489Z,23.20
2018-04-20T19:13:20.083Z,23.10
2018-04-20T19:15:47.826Z,23.00
2018-04-20T19:18:15.599Z,22.90
2018-04-20T19:20:43.963Z,22.90
2018-04-20T19:23:11.621Z,22.90
2018-04-20T19:25:40.049Z,22.60
2018-04-20T19:28:07.653Z,22.60
2018-04-20T19:30:35.217Z,22.50
2018-04-20T19:33:02.881Z,22.40
2018-04-20T19:35:31.246Z,22.40
2018-04-20T19:37:58.965Z,22.30
2018-04-20T19:40:26.542Z,22.40
2018-04-20T19:42:54.209Z,22.30
2018-04-20T19:45:21.938Z,22.30
2018-04-20T19:47:49.542Z,22.30
2018-04-20T19:50:17.222Z,22.30
2018-04-20T19:52:44.874Z,22.30
2018-04-20T19:55:12.450Z,22.30
2018-04-20T19:57:40.835Z,22.50
2018-04-20T20:00:08.445Z,22.50
2018-04-20T20:02:36.006Z,22.50
2018-04-20T20:05:03.622Z,22.50
2018-04-20T20:07:31.235Z,22.50
2018-04-20T20:09:58.829Z,22.40
2018-04-20T20:12:27.354Z,22.30
2018-04-20T20:14:54.941Z,22.30
2018-04-20T20:17:22.522Z,22.30
2018-04-20T20:19:50.901Z,22.40
2018-04-20T20:22:19.245Z,22.40
2018-04-20T20:24:47.598Z,22.40
2018-04-20T20:27:15.165Z,22.40
2018-04-20T20:29:42.859Z,22.30
2018-04-20T20:32:10.435Z,22.30
2018-04-20T20:34:38.770Z,22.20
2018-04-20T20:37:06.311Z,22.20
2018-04-20T20:39:33.909Z,21.70
2018-04-20T20:42:01.477Z,21.20
2018-04-20T20:44:29.970Z,20.50
2018-04-20T20:46:58.313Z,20.40
2018-04-20T20:49:26.641Z,20.40
2018-04-20T20:51:54.369Z,20.30
2018-04-20T20:54:22.790Z,20.30
2018-04-20T20:56:50.377Z,20.20
2018-04-20T20:59:17.956Z,20.00
2018-04-20T21:01:45.721Z,19.90
2018-04-20T21:04:13.296Z,19.80
2018-04-20T21:06:41.678Z,19.70
2018-04-20T21:09:10.158Z,19.60
2018-04-20T21:11:37.746Z,19.60
2018-04-20T21:14:05.348Z,19.70
2018-04-20T21:16:33.096Z,19.60
2018-04-20T21:19:00.674Z,19.90
2018-04-20T21:21:28.318Z,19.90
2018-04-20T21:23:55.898Z,19.80
2018-04-20T21:26:24.262Z,19.40
2018-04-20T21:28:51.881Z,19.40
2018-04-20T21:31:19.627Z,19.40
2018-04-20T21:33:47.293Z,19.50
2018-04-20T21:36:14.968Z,19.60
2018-04-20T21:38:42.601Z,19.60
2018-04-20T21:41:10.355Z,19.50
2018-04-20T21:43:38.726Z,19.30
2018-04-20T21:46:07.094Z,19.00
2018-04-20T21:48:35.473Z,19.30
2018-04-20T21:51:03.026Z,19.30
2018-04-20T21:53:30.607Z,19.40
2018-04-20T21:55:58.945Z,19.60
2018-04-20T21:58:26.524Z,19.50
2018-04-20T22:00:54.884Z,18.80
2018-04-20T22:03:22.447Z,18.70
2018-04-20T22:05:50.036Z,18.90
2018-04-20T22:08:17.633Z,18.70
2018-04-20T22:10:45.240Z,18.50
2018-04-20T22:13:13.600Z,18.30
2018-04-20T22:15:41.206Z,18.20
2018-04-20T22:18:08.826Z,18.20
2018-04-20T22:20:36.453Z,18.10
2018-04-20T22:23:04.013Z,18.00
2018-04-20T22:25:31.813Z,18.00
2018-04-20T22:28:00.165Z,17.90
2018-04-20T22:30:27.754Z,17.90
2018-04-20T22:32:56.125Z,17.90
2018-04-20T22:35:23.721Z,17.90
2018-04-20T22:37:51.447Z,17.80
2018-04-20T22:40:19.868Z,17.70
2018-04-20T22:42:47.481Z,17.70
2018-04-20T22:45:15.087Z,17.60
2018-04-20T22:47:42.692Z,17.60
2018-04-20T22:50:10.402Z,17.50
2018-04-20T22:52:38.009Z,17.50
2018-04-20T22:55:05.682Z,17.90
2018-04-20T22:57:33.436Z,18.00
2018-04-20T23:00:01.049Z,18.00
2018-04-20T23:02:28.637Z,18.00
2018-04-20T23:04:56.322Z,17.80
2018-04-20T23:07:23.989Z,17.50
2018-04-20T23:09:52.349Z,17.20
2018-04-20T23:12:19.996Z,17.20
2018-04-20T23:14:47.738Z,17.10
2018-04-20T23:17:15.290Z,17.00
2018-04-20T23:19:42.889Z,17.00
2018-04-20T23:22:10.493Z,17.00
2018-04-20T23:24:38.170Z,17.00
2018-04-20T23:27:05.776Z,17.00
2018-04-20T23:29:33.329Z,16.90
2018-04-20T23:32:00.957Z,16.90
2018-04-20T23:34:28.517Z,16.90
2018-04-20T23:36:56.110Z,16.80
2018-04-20T23:39:23.666Z,17.10
2018-04-20T23:41:51.382Z,17.20
2018-04-20T23:44:18.941Z,17.00
2018-04-20T23:46:46.521Z,17.20
2018-04-20T23:49:14.166Z,16.90
2018-04-20T23:51:41.830Z,16.70
2018-04-20T23:54:09.465Z,16.70
2018-04-20T23:56:37.030Z,16.60
2018-04-20T23:59:04.718Z,16.50
